createdAt,value
2019-03-05T00:01:10.424Z,21.77
2019-03-05T00:03:40.831Z,22.87
2019-03-05T00:06:14.498Z,21.73
2019-03-05T00:08:44.830Z,23.63
2019-03-05T00:11:15.177Z,21.13
2019-03-05T00:13:45.604Z,22.83
2019-03-05T00:16:17.157Z,21.27
2019-03-05T00:18:47.513Z,16.00
2019-03-05T00:21:17.985Z,24.50
2019-03-05T00:24:18.207Z,17.20
2019-03-05T00:26:48.536Z,19.73
2019-03-05T00:29:37.188Z,21.70
2019-03-05T00:32:08.007Z,22.87
2019-03-05T00:35:17.631Z,21.37
2019-03-05T00:38:11.736Z,17.97
2019-03-05T00:41:28.572Z,22.93
2019-03-05T00:44:21.642Z,21.33
2019-03-05T00:47:30.645Z,20.60
2019-03-05T00:50:32.221Z,28.20
2019-03-05T00:53:11.589Z,14.83
2019-03-05T00:56:22.541Z,16.87
2019-03-05T00:59:14.563Z,17.27
2019-03-05T01:02:29.155Z,22.20
2019-03-05T01:05:11.415Z,21.20
2019-03-05T01:07:42.106Z,22.03
2019-03-05T01:10:14.186Z,17.67
2019-03-05T01:12:44.600Z,16.87
2019-03-05T01:15:14.919Z,17.17
2019-03-05T01:17:45.313Z,14.90
2019-03-05T01:20:17.683Z,19.93
2019-03-05T01:22:47.999Z,18.83
2019-03-05T01:25:29.395Z,25.67
2019-03-05T01:27:59.655Z,14.87
2019-03-05T01:30:36.406Z,20.87
2019-03-05T01:33:11.162Z,16.13
2019-03-05T01:35:49.500Z,20.40
2019-03-05T01:38:19.814Z,21.00
2019-03-05T01:40:54.588Z,24.93
2019-03-05T01:43:27.463Z,14.87
2019-03-05T01:45:57.737Z,26.50
2019-03-05T01:48:28.060Z,25.33
2019-03-05T01:50:58.405Z,21.73
2019-03-05T01:53:28.707Z,21.97
2019-03-05T01:55:59.031Z,21.47
2019-03-05T01:58:29.431Z,26.00
2019-03-05T02:01:02.570Z,21.77
2019-03-05T02:03:32.924Z,20.77
2019-03-05T02:06:03.453Z,10.63
2019-03-05T02:08:33.726Z,18.60
2019-03-05T02:11:05.271Z,19.90
2019-03-05T02:13:35.556Z,23.33
2019-03-05T02:16:05.949Z,18.30
2019-03-05T02:18:38.323Z,19.57
2019-03-05T02:21:10.164Z,16.40
2019-03-05T02:24:04.606Z,19.00
2019-03-05T02:27:31.112Z,22.37
2019-03-05T02:30:16.742Z,16.27
2019-03-05T02:33:06.893Z,21.67
2019-03-05T02:36:17.139Z,17.20
2019-03-05T02:39:14.476Z,20.60
2019-03-05T02:41:57.518Z,22.50
2019-03-05T02:45:08.811Z,15.63
2019-03-05T02:48:20.101Z,15.70
2019-03-05T02:51:40.352Z,8.80
2019-03-05T02:54:47.577Z,17.17
2019-03-05T02:57:16.260Z,19.73
2019-03-05T02:59:46.607Z,16.53
2019-03-05T03:02:39.815Z,14.90
2019-03-05T03:05:28.369Z,13.33
2019-03-05T03:07:58.794Z,15.37
2019-03-05T03:10:29.510Z,15.73
2019-03-05T03:13:00.293Z,20.17
2019-03-05T03:15:30.650Z,23.10
2019-03-05T03:18:01.112Z,11.80
2019-03-05T03:20:31.579Z,15.37
2019-03-05T03:23:02.835Z,14.33
2019-03-05T03:25:33.213Z,13.47
2019-03-05T03:28:03.507Z,18.60
2019-03-05T03:30:33.868Z,20.83
2019-03-05T03:33:04.429Z,17.73
2019-03-05T03:35:34.781Z,13.70
2019-03-05T03:38:14.709Z,13.33
2019-03-05T03:40:48.273Z,24.47
2019-03-05T03:43:18.790Z,18.73
2019-03-05T03:45:49.207Z,15.33
2019-03-05T03:48:19.627Z,20.53
2019-03-05T03:50:52.658Z,15.70
2019-03-05T03:53:24.360Z,15.10
2019-03-05T03:55:54.804Z,19.73
2019-03-05T03:58:25.121Z,16.67
2019-03-05T04:00:55.490Z,23.87
2019-03-05T04:03:25.856Z,14.20
2019-03-05T04:05:56.272Z,18.40
2019-03-05T04:08:34.746Z,15.50
2019-03-05T04:11:05.150Z,27.33
2019-03-05T04:13:35.693Z,16.30
2019-03-05T04:16:06.052Z,19.83
2019-03-05T04:18:36.461Z,16.93
2019-03-05T04:21:06.864Z,18.27
2019-03-05T04:23:37.327Z,15.87
2019-03-05T04:26:09.026Z,14.27
2019-03-05T04:28:39.456Z,13.57
2019-03-05T04:31:09.771Z,7.60
2019-03-05T04:33:40.167Z,14.20
2019-03-05T04:36:10.556Z,21.33
2019-03-05T04:38:42.043Z,15.87
2019-03-05T04:41:12.370Z,15.17
2019-03-05T04:43:44.019Z,16.03
2019-03-05T04:46:51.722Z,15.13
2019-03-05T04:49:39.730Z,18.77
2019-03-05T04:52:13.560Z,19.83
2019-03-05T04:54:44.092Z,14.30
2019-03-05T04:57:14.500Z,17.40
2019-03-05T04:59:44.846Z,25.43
2019-03-05T05:02:16.419Z,14.77
2019-03-05T05:04:47.924Z,15.83
2019-03-05T05:07:21.192Z,9.60
2019-03-05T05:09:52.657Z,14.47
2019-03-05T05:12:23.501Z,13.60
2019-03-05T05:14:54.563Z,15.00
2019-03-05T05:17:26.717Z,11.20
2019-03-05T05:19:57.106Z,17.77
2019-03-05T05:22:27.480Z,18.73
2019-03-05T05:24:57.787Z,16.90
2019-03-05T05:27:28.151Z,16.03
2019-03-05T05:29:59.568Z,12.93
2019-03-05T05:32:29.935Z,14.43
2019-03-05T05:35:00.407Z,14.83
2019-03-05T05:37:30.884Z,10.30
2019-03-05T05:40:26.329Z,15.50
2019-03-05T05:42:58.332Z,17.93
2019-03-05T05:45:40.987Z,13.37
2019-03-05T05:48:11.314Z,18.17
2019-03-05T05:50:42.492Z,12.07
2019-03-05T05:53:12.828Z,19.20
2019-03-05T05:55:49.447Z,15.00
2019-03-05T05:58:19.873Z,10.43
2019-03-05T06:00:52.471Z,16.23
2019-03-05T06:03:24.477Z,16.73
2019-03-05T06:05:57.078Z,15.67
2019-03-05T06:08:27.335Z,13.83
2019-03-05T06:10:57.655Z,9.37
2019-03-05T06:13:27.984Z,17.03
2019-03-05T06:15:58.644Z,17.23
2019-03-05T06:18:29.022Z,13.03
2019-03-05T06:20:59.428Z,14.97
2019-03-05T06:23:29.903Z,20.50
2019-03-05T06:26:00.264Z,22.77
2019-03-05T06:28:31.257Z,13.53
2019-03-05T06:31:01.722Z,16.87
2019-03-05T06:33:32.170Z,15.33
2019-03-05T06:36:02.680Z,13.67
2019-03-05T06:38:33.106Z,15.97
2019-03-05T06:41:03.542Z,21.00
2019-03-05T06:43:33.970Z,7.53
2019-03-05T06:46:04.455Z,17.03
2019-03-05T06:48:34.950Z,14.47
2019-03-05T06:51:05.418Z,14.13
2019-03-05T06:53:35.842Z,15.27
2019-03-05T06:56:06.276Z,12.53
2019-03-05T06:58:37.381Z,18.13
2019-03-05T07:01:08.036Z,18.20
2019-03-05T07:03:39.511Z,15.03
2019-03-05T07:06:46.172Z,16.97
2019-03-05T07:09:40.971Z,15.57
2019-03-05T07:12:18.169Z,12.30
2019-03-05T07:15:37.759Z,14.13
2019-03-05T07:18:23.525Z,12.60
2019-03-05T07:21:46.254Z,20.20
2019-03-05T07:24:50.223Z,11.67
2019-03-05T07:27:29.042Z,11.57
2019-03-05T07:30:07.935Z,10.73
2019-03-05T07:32:38.389Z,20.47
2019-03-05T07:35:09.923Z,14.37
2019-03-05T07:37:40.414Z,15.67
2019-03-05T07:40:11.276Z,13.50
2019-03-05T07:42:42.177Z,17.50
2019-03-05T07:45:12.637Z,16.30
2019-03-05T07:47:44.030Z,15.87
2019-03-05T07:50:14.869Z,14.27
2019-03-05T07:52:45.202Z,17.67
2019-03-05T07:55:17.463Z,20.50
2019-03-05T07:57:47.839Z,19.87
2019-03-05T08:00:20.399Z,14.77
2019-03-05T08:02:50.815Z,12.70
2019-03-05T08:05:21.185Z,18.77
2019-03-05T08:07:53.161Z,18.97
2019-03-05T08:10:33.345Z,10.47
2019-03-05T08:13:12.025Z,14.63
2019-03-05T08:16:26.462Z,10.63
2019-03-05T08:18:58.823Z,13.67
2019-03-05T08:21:29.193Z,18.77
2019-03-05T08:23:59.685Z,16.67
2019-03-05T08:26:30.010Z,17.77
2019-03-05T08:29:02.863Z,15.47
2019-03-05T08:31:32.611Z,11.90
2019-03-05T08:34:03.009Z,11.40
2019-03-05T08:36:33.345Z,15.33
2019-03-05T08:39:05.426Z,15.43
2019-03-05T08:41:36.600Z,12.70
2019-03-05T08:44:07.130Z,17.57
2019-03-05T08:46:37.417Z,13.27
2019-03-05T08:49:07.778Z,20.27
2019-03-05T08:51:38.067Z,17.77
2019-03-05T08:54:08.590Z,17.87
2019-03-05T08:56:39.022Z,11.57
2019-03-05T08:59:09.510Z,11.60
2019-03-05T09:01:40.049Z,12.50
2019-03-05T09:04:10.424Z,14.30
2019-03-05T09:06:42.468Z,22.07
2019-03-05T09:09:16.961Z,16.73
2019-03-05T09:11:47.843Z,19.50
2019-03-05T09:14:18.504Z,16.67
2019-03-05T09:16:49.210Z,11.33
2019-03-05T09:19:19.675Z,10.37
2019-03-05T09:21:50.761Z,12.77
2019-03-05T09:24:21.250Z,15.10
2019-03-05T09:26:51.840Z,17.67
2019-03-05T09:29:22.471Z,18.10
2019-03-05T09:31:52.972Z,10.63
2019-03-05T09:34:23.283Z,15.50
2019-03-05T09:36:55.386Z,23.93
2019-03-05T09:39:26.998Z,12.40
2019-03-05T09:41:58.735Z,15.07
2019-03-05T09:44:29.171Z,12.10
2019-03-05T09:46:59.572Z,24.67
2019-03-05T09:49:30.064Z,14.97
2019-03-05T09:52:00.598Z,17.77
2019-03-05T09:54:30.982Z,17.10
2019-03-05T09:57:02.847Z,17.10
2019-03-05T09:59:35.815Z,17.83
2019-03-05T10:02:06.573Z,14.23
2019-03-05T10:04:37.129Z,24.53
2019-03-05T10:07:18.569Z,26.70
2019-03-05T10:09:41.753Z,15.17
2019-03-05T10:12:12.427Z,13.43
2019-03-05T10:14:43.963Z,16.73
2019-03-05T10:17:14.502Z,19.57
2019-03-05T10:19:45.129Z,14.80
2019-03-05T10:22:16.178Z,10.03
2019-03-05T10:24:47.064Z,19.50
2019-03-05T10:27:18.055Z,20.23
2019-03-05T10:29:48.661Z,19.50
2019-03-05T10:32:22.789Z,16.20
2019-03-05T10:34:53.267Z,15.80
2019-03-05T10:37:23.747Z,24.40
2019-03-05T10:39:54.271Z,17.20
2019-03-05T10:42:24.673Z,12.90
2019-03-05T10:44:55.231Z,16.43
2019-03-05T10:47:25.622Z,14.47
2019-03-05T10:49:56.121Z,9.30
2019-03-05T10:52:28.387Z,13.27
2019-03-05T10:54:58.884Z,22.77
2019-03-05T10:57:29.472Z,16.03
2019-03-05T11:00:05.321Z,12.90
2019-03-05T11:02:36.143Z,15.30
2019-03-05T11:05:06.951Z,16.63
2019-03-05T11:07:37.475Z,12.83
2019-03-05T11:10:09.991Z,11.73
2019-03-05T11:12:42.019Z,12.77
2019-03-05T11:15:21.207Z,16.17
2019-03-05T11:17:51.805Z,12.87
2019-03-05T11:20:22.273Z,16.83
2019-03-05T11:22:52.705Z,14.13
2019-03-05T11:25:23.472Z,16.30
2019-03-05T11:27:56.360Z,12.97
2019-03-05T11:30:35.546Z,15.80
2019-03-05T11:32:59.940Z,16.07
2019-03-05T11:35:31.263Z,16.90
2019-03-05T11:38:04.957Z,10.93
2019-03-05T11:40:35.557Z,15.60
2019-03-05T11:43:09.595Z,18.60
2019-03-05T11:45:44.428Z,14.73
2019-03-05T11:48:16.626Z,12.30
2019-03-05T11:50:47.600Z,11.73
2019-03-05T11:53:18.234Z,15.47
2019-03-05T11:55:50.572Z,11.17
2019-03-05T11:58:20.971Z,8.73
2019-03-05T12:01:01.068Z,13.27
2019-03-05T12:03:32.360Z,12.93
2019-03-05T12:06:02.826Z,12.13
2019-03-05T12:08:33.244Z,11.63
2019-03-05T12:11:03.608Z,13.10
2019-03-05T12:13:35.253Z,15.50
2019-03-05T12:16:11.907Z,10.37
2019-03-05T12:18:44.106Z,11.17
2019-03-05T12:21:14.571Z,15.50
2019-03-05T12:23:47.233Z,11.07
2019-03-05T12:26:17.062Z,12.67
2019-03-05T12:28:47.492Z,12.17
2019-03-05T12:31:17.840Z,11.90
2019-03-05T12:33:48.412Z,9.20
2019-03-05T12:36:19.033Z,10.37
2019-03-05T12:38:51.356Z,13.43
2019-03-05T12:41:21.535Z,14.63
2019-03-05T12:43:52.878Z,11.73
2019-03-05T12:46:23.540Z,10.47
2019-03-05T12:48:56.481Z,16.00
2019-03-05T12:51:27.111Z,11.07
2019-03-05T12:53:57.588Z,16.57
2019-03-05T12:56:28.180Z,11.27
2019-03-05T12:58:58.582Z,13.67
2019-03-05T13:01:29.121Z,16.73
2019-03-05T13:03:59.785Z,11.80
2019-03-05T13:06:30.252Z,12.43
2019-03-05T13:09:00.782Z,17.87
2019-03-05T13:11:35.140Z,15.03
2019-03-05T13:14:09.321Z,15.67
2019-03-05T13:16:39.365Z,19.33
2019-03-05T13:19:11.017Z,14.33
2019-03-05T13:21:44.161Z,12.03
2019-03-05T13:24:15.007Z,15.33
2019-03-05T13:26:50.742Z,14.73
2019-03-05T13:29:21.257Z,14.10
2019-03-05T13:31:51.650Z,12.63
2019-03-05T13:34:22.228Z,15.30
2019-03-05T13:36:52.676Z,16.13
2019-03-05T13:39:23.898Z,15.63
2019-03-05T13:41:54.991Z,18.67
2019-03-05T13:44:34.062Z,14.90
2019-03-05T13:47:07.467Z,15.63
2019-03-05T13:50:09.542Z,15.37
2019-03-05T13:53:14.586Z,13.60
2019-03-05T13:56:17.737Z,12.63
2019-03-05T13:59:31.555Z,16.87
2019-03-05T14:02:02.054Z,13.00
2019-03-05T14:04:37.224Z,12.70
2019-03-05T14:07:44.687Z,12.57
2019-03-05T14:10:15.127Z,15.20
2019-03-05T14:12:45.554Z,14.60
2019-03-05T14:15:16.556Z,15.90
2019-03-05T14:17:48.616Z,20.33
2019-03-05T14:20:31.527Z,17.23
2019-03-05T14:22:55.657Z,17.57
2019-03-05T14:25:26.194Z,18.40
2019-03-05T14:27:56.635Z,17.93
2019-03-05T14:30:28.276Z,14.40
2019-03-05T14:33:00.766Z,15.33
2019-03-05T14:35:34.981Z,15.13
2019-03-05T14:38:05.568Z,17.87
2019-03-05T14:40:37.914Z,14.50
2019-03-05T14:43:08.185Z,21.13
2019-03-05T14:45:38.848Z,12.57
2019-03-05T14:48:09.285Z,18.20
2019-03-05T14:50:40.120Z,8.60
2019-03-05T14:53:10.713Z,14.20
2019-03-05T14:55:41.664Z,13.40
2019-03-05T14:58:12.237Z,19.93
2019-03-05T15:00:42.932Z,11.30
2019-03-05T15:03:13.683Z,11.77
2019-03-05T15:05:44.141Z,17.13
2019-03-05T15:08:18.734Z,12.13
2019-03-05T15:10:49.254Z,15.53
2019-03-05T15:13:25.154Z,19.13
2019-03-05T15:15:55.653Z,19.57
2019-03-05T15:18:26.217Z,14.87
2019-03-05T15:20:56.660Z,14.33
2019-03-05T15:23:27.184Z,13.43
2019-03-05T15:25:57.854Z,17.50
2019-03-05T15:28:28.219Z,18.97
2019-03-05T15:31:00.673Z,19.17
2019-03-05T15:33:33.324Z,12.97
2019-03-05T15:36:03.773Z,10.30
2019-03-05T15:38:36.233Z,16.50
2019-03-05T15:41:08.274Z,17.07
2019-03-05T15:43:38.662Z,18.30
2019-03-05T15:46:09.481Z,17.20
2019-03-05T15:48:39.927Z,25.23
2019-03-05T15:51:10.306Z,16.13
2019-03-05T15:53:40.819Z,15.57
2019-03-05T15:56:12.274Z,15.47
2019-03-05T15:58:43.101Z,11.07
2019-03-05T16:01:21.920Z,19.57
2019-03-05T16:03:45.809Z,17.03
2019-03-05T16:06:17.919Z,22.23
2019-03-05T16:08:48.340Z,18.07
2019-03-05T16:11:18.904Z,18.70
2019-03-05T16:13:52.285Z,21.37
2019-03-05T16:16:21.820Z,20.17
2019-03-05T16:18:52.744Z,21.50
2019-03-05T16:21:23.478Z,16.70
2019-03-05T16:23:54.112Z,20.77
2019-03-05T16:26:24.854Z,17.33
2019-03-05T16:28:55.564Z,24.37
2019-03-05T16:31:45.412Z,21.97
2019-03-05T16:34:34.808Z,26.93
2019-03-05T16:37:25.746Z,19.93
2019-03-05T16:40:12.514Z,19.30
2019-03-05T16:42:59.142Z,24.60
2019-03-05T16:45:47.328Z,20.27
2019-03-05T16:48:39.627Z,20.00
2019-03-05T16:51:36.316Z,23.27
2019-03-05T16:54:26.493Z,21.50
2019-03-05T16:57:04.329Z,17.83
2019-03-05T16:59:50.434Z,26.43
2019-03-05T17:02:44.462Z,19.03
2019-03-05T17:05:41.947Z,16.90
2019-03-05T17:08:36.105Z,18.33
2019-03-05T17:11:28.827Z,23.13
2019-03-05T17:14:00.772Z,20.27
2019-03-05T17:16:39.064Z,22.13
2019-03-05T17:19:09.778Z,21.57
2019-03-05T17:21:40.828Z,25.17
2019-03-05T17:24:11.494Z,24.07
2019-03-05T17:26:41.974Z,21.30
2019-03-05T17:29:12.448Z,21.50
2019-03-05T17:31:44.048Z,25.57
2019-03-05T17:34:16.057Z,24.30
2019-03-05T17:36:46.743Z,32.83
2019-03-05T17:39:21.159Z,21.87
2019-03-05T17:41:51.737Z,29.63
2019-03-05T17:44:22.293Z,28.53
2019-03-05T17:47:00.410Z,30.27
2019-03-05T17:49:31.527Z,20.60
2019-03-05T17:52:02.023Z,19.63
2019-03-05T17:54:32.928Z,20.97
2019-03-05T17:57:03.509Z,23.10
2019-03-05T17:59:37.952Z,24.07
2019-03-05T18:02:08.644Z,27.33
2019-03-05T18:04:39.297Z,26.23
2019-03-05T18:07:09.737Z,26.50
2019-03-05T18:09:40.241Z,42.73
2019-03-05T18:12:11.226Z,21.60
2019-03-05T18:14:43.412Z,19.43
2019-03-05T18:17:15.260Z,25.87
2019-03-05T18:19:45.848Z,20.10
2019-03-05T18:22:16.411Z,30.63
2019-03-05T18:24:46.922Z,24.77
2019-03-05T18:27:17.587Z,25.57
2019-03-05T18:29:50.509Z,27.30
2019-03-05T18:32:21.495Z,22.97
2019-03-05T18:34:53.337Z,32.70
2019-03-05T18:37:23.907Z,32.37
2019-03-05T18:39:54.557Z,29.50
2019-03-05T18:42:26.660Z,27.90
2019-03-05T18:44:59.752Z,27.70
2019-03-05T18:47:30.296Z,31.63
2019-03-05T18:50:03.057Z,38.33
2019-03-05T18:52:33.629Z,29.00
2019-03-05T18:55:04.544Z,24.07
2019-03-05T18:57:38.078Z,20.57
2019-03-05T19:00:12.969Z,38.87
2019-03-05T19:02:44.700Z,29.23
2019-03-05T19:05:15.792Z,24.07
2019-03-05T19:07:47.990Z,31.53
2019-03-05T19:10:19.358Z,33.37
2019-03-05T19:12:51.332Z,25.33
2019-03-05T19:15:22.129Z,26.73
2019-03-05T19:17:54.061Z,23.17
2019-03-05T19:20:24.666Z,28.57
2019-03-05T19:22:55.471Z,27.27
2019-03-05T19:25:27.474Z,34.13
2019-03-05T19:27:58.146Z,28.13
2019-03-05T19:30:32.044Z,29.93
2019-03-05T19:33:02.406Z,28.30
2019-03-05T19:35:32.854Z,30.40
2019-03-05T19:38:03.343Z,23.43
2019-03-05T19:40:35.177Z,29.90
2019-03-05T19:43:06.247Z,25.87
2019-03-05T19:45:37.805Z,32.83
2019-03-05T19:48:08.267Z,23.47
2019-03-05T19:50:38.751Z,23.37
2019-03-05T19:53:09.302Z,16.27
2019-03-05T19:55:39.709Z,26.33
2019-03-05T19:58:12.607Z,33.23
2019-03-05T20:01:09.426Z,25.00
2019-03-05T20:03:41.524Z,30.07
2019-03-05T20:06:12.989Z,26.52
2019-03-05T20:08:43.697Z,31.00
2019-03-05T20:11:15.900Z,24.43
2019-03-05T20:13:46.308Z,24.13
2019-03-05T20:16:18.559Z,21.93
2019-03-05T20:18:49.034Z,21.67
2019-03-05T20:21:19.510Z,20.33
2019-03-05T20:23:50.093Z,25.07
2019-03-05T20:26:20.681Z,24.83
2019-03-05T20:28:52.993Z,34.80
2019-03-05T20:31:26.386Z,29.83
2019-03-05T20:33:56.914Z,38.90
2019-03-05T20:36:29.978Z,23.37
2019-03-05T20:39:00.506Z,37.97
2019-03-05T20:41:32.657Z,37.40
2019-03-05T20:44:03.420Z,20.57
2019-03-05T20:46:33.937Z,20.80
2019-03-05T20:49:06.037Z,24.47
2019-03-05T20:51:38.809Z,24.07
2019-03-05T20:54:09.455Z,31.80
2019-03-05T20:56:39.864Z,21.00
2019-03-05T20:59:13.431Z,24.23
2019-03-05T21:01:45.570Z,24.13
2019-03-05T21:04:16.457Z,23.37
2019-03-05T21:06:46.968Z,17.73
2019-03-05T21:09:37.952Z,20.73
2019-03-05T21:12:08.527Z,26.73
2019-03-05T21:14:39.038Z,20.73
2019-03-05T21:17:10.711Z,20.53
2019-03-05T21:19:41.427Z,19.83
2019-03-05T21:22:12.992Z,29.43
2019-03-05T21:24:43.495Z,22.33
2019-03-05T21:27:13.899Z,25.60
2019-03-05T21:29:44.388Z,23.17
2019-03-05T21:32:14.759Z,21.33
2019-03-05T21:34:47.004Z,21.03
2019-03-05T21:37:17.235Z,27.97
2019-03-05T21:39:49.109Z,27.13
2019-03-05T21:42:19.532Z,19.10
2019-03-05T21:44:50.075Z,19.87
2019-03-05T21:47:21.782Z,21.83
2019-03-05T21:49:53.641Z,28.40
2019-03-05T21:52:24.108Z,25.70
2019-03-05T21:54:54.593Z,21.60
2019-03-05T21:57:26.083Z,27.33
2019-03-05T21:59:57.638Z,33.73
2019-03-05T22:02:28.112Z,27.63
2019-03-05T22:04:58.742Z,19.73
2019-03-05T22:07:29.194Z,28.90
2019-03-05T22:10:00.596Z,17.03
2019-03-05T22:12:31.987Z,21.17
2019-03-05T22:15:02.428Z,23.77
2019-03-05T22:17:33.784Z,20.70
2019-03-05T22:20:04.473Z,22.93
2019-03-05T22:22:36.565Z,21.97
2019-03-05T22:25:08.954Z,18.30
2019-03-05T22:27:42.617Z,28.87
2019-03-05T22:30:17.816Z,22.03
2019-03-05T22:32:48.218Z,22.97
2019-03-05T22:35:19.482Z,20.63
2019-03-05T22:37:49.950Z,21.83
2019-03-05T22:40:25.919Z,18.07
2019-03-05T22:42:56.848Z,19.73
2019-03-05T22:45:27.353Z,26.23
2019-03-05T22:47:57.802Z,27.67
2019-03-05T22:50:28.245Z,16.43
2019-03-05T22:52:58.958Z,23.33
2019-03-05T22:55:36.693Z,21.60
2019-03-05T22:58:07.093Z,18.43
2019-03-05T23:01:27.501Z,25.33
2019-03-05T23:03:59.940Z,18.73
2019-03-05T23:06:30.672Z,24.60
2019-03-05T23:09:01.134Z,19.43
2019-03-05T23:11:33.462Z,19.97
2019-03-05T23:14:03.972Z,23.20
2019-03-05T23:16:35.935Z,16.63
2019-03-05T23:19:06.808Z,20.13
2019-03-05T23:21:40.803Z,20.80
2019-03-05T23:24:11.330Z,17.67
2019-03-05T23:26:41.814Z,18.90
2019-03-05T23:29:14.330Z,15.13
2019-03-05T23:31:45.109Z,12.60
2019-03-05T23:34:18.223Z,21.20
2019-03-05T23:36:48.527Z,21.57
2019-03-05T23:39:18.947Z,20.97
2019-03-05T23:41:49.480Z,20.67
2019-03-05T23:44:19.950Z,25.80
2019-03-05T23:46:50.399Z,22.83
2019-03-05T23:49:20.866Z,16.67
2019-03-05T23:51:51.307Z,16.50
2019-03-05T23:54:24.692Z,19.80
2019-03-05T23:56:55.077Z,18.30
2019-03-05T23:59:25.321Z,17.27
